Time;durP1;ratioP1;P1;durP2;ratioP2;P2;SDS_P1;SDS_P2;PMS_P1;PMS_P2;Temp;Humidity;BMP_temperature;BMP_pressure;BME280_temperature;BME280_humidity;BME280_pressure;Samples;Min_cycle;Max_cycle;Signal;HPM_P1;HPM_P2
2024/01/05 00:01:34;;;;;;;6.87;6.23;;;;;;;8.44;91.14;99125.50;5031529;28;20283;-73
2024/01/05 00:04:02;;;;;;;5.87;5.40;;;;;;;8.45;91.16;99127.16;5031456;28;20258;-73
2024/01/05 00:06:29;;;;;;;5.70;5.13;;;;;;;8.43;91.34;99129.16;5031844;28;20197;-73
2024/01/05 00:08:56;;;;;;;4.57;4.27;;;;;;;8.51;92.14;99121.09;5031708;28;20192;-73
2024/01/05 00:11:23;;;;;;;4.40;3.90;;;;;;;8.56;91.77;99139.84;5031809;28;20236;-73
2024/01/05 00:13:50;;;;;;;3.87;3.57;;;;;;;8.60;92.08;99147.25;5033527;28;20250;-73
2024/01/05 00:16:18;;;;;;;4.13;3.70;;;;;;;8.66;91.13;99150.94;5035645;28;20197;-74
2024/01/05 00:18:45;;;;;;;4.07;3.70;;;;;;;8.69;91.02;99148.72;5035439;28;20280;-74
2024/01/05 00:21:21;;;;;;;5.20;3.57;;;;;;;8.68;91.18;99159.50;5035601;28;20217;-73
2024/01/05 00:23:49;;;;;;;3.60;3.40;;;;;;;8.69;90.80;99161.97;5035897;28;20188;-74
2024/01/05 00:26:16;;;;;;;6.27;3.53;;;;;;;8.68;90.62;99164.81;5035271;28;20193;-74
2024/01/05 00:28:43;;;;;;;3.70;3.50;;;;;;;8.68;89.79;99175.41;5035494;28;20255;-73
2024/01/05 00:31:11;;;;;;;4.30;3.90;;;;;;;8.65;90.11;99170.47;5035665;28;20197;-74
2024/01/05 00:33:37;;;;;;;4.47;4.07;;;;;;;8.67;89.61;99171.13;5035610;28;20232;-74
2024/01/05 00:36:05;;;;;;;3.90;3.60;;;;;;;8.65;89.71;99170.47;5035480;28;20267;-73
2024/01/05 00:38:33;;;;;;;4.10;3.80;;;;;;;8.66;89.21;99172.13;5018290;28;20673;-73
2024/01/05 00:41:00;;;;;;;3.97;3.77;;;;;;;8.67;89.44;99168.47;5015231;28;20221;-73
2024/01/05 00:43:27;;;;;;;3.80;3.50;;;;;;;8.68;88.98;99165.63;5015461;28;20265;-73
2024/01/05 00:45:54;;;;;;;4.40;3.80;;;;;;;8.69;88.75;99166.44;5015245;28;20732;-73
2024/01/05 00:48:20;;;;;;;3.93;3.73;;;;;;;8.68;88.89;99157.69;5015454;28;20256;-73
2024/01/05 00:50:47;;;;;;;4.73;3.67;;;;;;;8.70;88.50;99162.81;5015222;28;20662;-73
2024/01/05 00:53:14;;;;;;;3.83;3.57;;;;;;;8.69;88.81;99163.78;5015433;28;20198;-73
2024/01/05 00:55:42;;;;;;;3.93;3.70;;;;;;;8.67;88.70;99161.34;5015124;28;20666;-73
2024/01/05 00:58:09;;;;;;;4.23;3.97;;;;;;;8.67;88.21;99164.00;5014925;28;20198;-74
2024/01/05 01:00:36;;;;;;;3.77;3.47;;;;;;;8.65;87.96;99170.47;5015116;28;20221;-73
2024/01/05 01:03:03;;;;;;;3.93;3.63;;;;;;;8.65;88.26;99163.34;5032318;28;20201;-73
2024/01/05 01:05:29;;;;;;;4.10;3.90;;;;;;;8.57;88.26;99163.50;5034900;28;20197;-73
2024/01/05 01:07:56;;;;;;;4.13;3.83;;;;;;;8.57;88.02;99163.50;5034564;28;20673;-73
2024/01/05 01:10:23;;;;;;;3.70;3.50;;;;;;;8.49;87.76;99165.47;5034799;28;20255;-73
2024/01/05 01:12:51;;;;;;;2.90;2.80;;;;;;;8.44;88.81;99159.91;5034458;28;20661;-74
2024/01/05 01:15:18;;;;;;;3.63;3.33;;;;;;;8.45;89.10;99157.06;5034316;28;20193;-73
2024/01/05 01:17:44;;;;;;;3.07;2.90;;;;;;;8.43;88.39;99160.94;5034684;28;20197;-73
2024/01/05 01:20:11;;;;;;;3.13;2.93;;;;;;;8.36;88.46;99162.69;5034215;28;20232;-73
2024/01/05 01:22:38;;;;;;;2.90;2.80;;;;;;;8.31;88.75;99170.38;5034285;28;20696;-73
2024/01/05 01:25:05;;;;;;;3.63;3.43;;;;;;;8.33;88.62;99163.09;5033110;28;20270;-72
2024/01/05 01:27:34;;;;;;;3.00;2.80;;;;;;;8.32;88.88;99166.72;5034717;28;20197;-73
2024/01/05 01:30:02;;;;;;;2.87;2.60;;;;;;;8.40;88.49;99174.53;5034675;28;20232;-72
2024/01/05 01:32:29;;;;;;;3.20;2.93;;;;;;;8.43;88.35;99172.34;5034499;28;20580;-72
2024/01/05 01:34:56;;;;;;;2.60;2.50;;;;;;;8.46;87.91;99179.09;5033975;28;20198;-72
2024/01/05 01:37:22;;;;;;;3.03;2.83;;;;;;;8.43;87.02;99175.00;5030973;28;20197;-73
2024/01/05 01:39:49;;;;;;;2.83;2.30;;;;;;;8.42;86.89;99175.97;5033930;28;20641;-74
2024/01/05 01:42:16;;;;;;;2.77;2.57;;;;;;;8.34;87.82;99188.53;5034068;28;20221;-74
2024/01/05 01:44:42;;;;;;;3.00;2.80;;;;;;;8.39;87.26;99181.69;5034129;28;20247;-74
2024/01/05 01:47:10;;;;;;;2.43;2.33;;;;;;;8.45;87.29;99186.19;5033942;28;20247;-74
2024/01/05 01:49:37;;;;;;;2.80;2.70;;;;;;;8.48;87.41;99185.00;5034041;28;20197;-74
2024/01/05 01:52:05;;;;;;;2.77;2.60;;;;;;;8.44;87.30;99191.66;5033998;28;20201;-74
2024/01/05 01:54:32;;;;;;;2.87;2.67;;;;;;;8.45;87.13;99191.50;5033248;28;20193;-74
2024/01/05 01:56:59;;;;;;;2.70;2.60;;;;;;;8.45;86.32;99195.97;5034222;28;20254;-74
2024/01/05 01:59:27;;;;;;;2.37;2.27;;;;;;;8.40;86.31;99191.25;5033787;28;20700;-75
2024/01/05 02:01:54;;;;;;;2.30;2.20;;;;;;;8.48;85.72;99182.34;5033503;28;20716;-75
2024/01/05 02:04:25;;;;;;;2.43;2.33;;;;;;;8.59;85.97;99181.84;5033974;28;20193;-75
2024/01/05 02:06:52;;;;;;;2.60;2.50;;;;;;;8.63;85.47;99185.75;5033969;28;20630;-77
2024/01/05 02:09:19;;;;;;;2.00;1.90;;;;;;;8.72;85.59;99189.88;5033368;28;20197;-77
2024/01/05 02:11:45;;;;;;;2.23;2.13;;;;;;;8.60;84.85;99194.88;5033856;28;20572;-77
2024/01/05 02:14:12;;;;;;;2.57;2.47;;;;;;;8.58;84.71;99193.44;5032898;28;20197;-75
2024/01/05 02:16:42;;;;;;;2.23;2.13;;;;;;;8.51;85.60;99196.03;5033399;28;20193;-75
2024/01/05 02:19:09;;;;;;;2.40;2.30;;;;;;;8.54;85.48;99186.91;5033212;28;20240;-76
2024/01/05 02:21:40;;;;;;;2.50;2.30;;;;;;;8.50;85.08;99191.72;5033468;28;20224;-76
2024/01/05 02:24:09;;;;;;;2.37;2.27;;;;;;;8.37;85.43;99204.03;5033484;28;20185;-76
2024/01/05 02:26:35;;;;;;;2.10;2.00;;;;;;;8.28;85.56;99197.22;5033647;28;20220;-74
2024/01/05 02:29:04;;;;;;;2.13;2.03;;;;;;;8.07;86.36;99181.28;5033029;28;20233;-74
2024/01/05 02:31:31;;;;;;;2.60;2.40;;;;;;;8.21;86.64;99188.41;5033127;28;20649;-75
2024/01/05 02:33:57;;;;;;;2.60;2.40;;;;;;;8.30;85.59;99189.91;5033358;28;20224;-75
2024/01/05 02:36:24;;;;;;;2.40;2.30;;;;;;;8.29;86.01;99196.22;5032460;28;20243;-74
2024/01/05 02:38:51;;;;;;;2.30;2.10;;;;;;;8.09;86.49;99181.94;5033142;28;20193;-74
2024/01/05 02:41:19;;;;;;;2.20;2.10;;;;;;;8.12;86.50;99200.06;5033000;28;20278;-74
2024/01/05 02:43:46;;;;;;;2.70;2.30;;;;;;;8.27;85.75;99195.59;5033101;28;20189;-74
2024/01/05 02:46:12;;;;;;;2.03;1.93;;;;;;;8.36;85.57;99194.44;5032468;28;20189;-75
2024/01/05 02:48:39;;;;;;;1.80;1.70;;;;;;;8.45;84.80;99202.06;5033011;28;20247;-74
2024/01/05 02:51:06;;;;;;;2.13;2.03;;;;;;;8.16;84.22;99153.72;5032610;28;20699;-76
2024/01/05 02:53:32;;;;;;;2.00;1.90;;;;;;;8.47;84.45;99199.25;5032902;28;20263;-74
2024/01/05 02:55:59;;;;;;;2.17;2.07;;;;;;;8.55;84.12;99207.06;5032849;28;20190;-72
2024/01/05 02:58:27;;;;;;;2.67;1.73;;;;;;;8.62;83.45;99203.44;5032778;28;20190;-74
2024/01/05 03:00:54;;;;;;;1.73;1.30;;;;;;;8.60;82.87;99215.25;5032758;28;20193;-74
2024/01/05 03:03:20;;;;;;;2.77;1.90;;;;;;;8.55;81.95;99207.06;5032867;28;20255;-75
2024/01/05 03:05:47;;;;;;;2.50;1.43;;;;;;;8.67;81.56;99221.41;5032696;28;20201;-73
2024/01/05 03:08:14;;;;;;;1.60;1.50;;;;;;;8.74;80.95;99222.31;5032330;28;20242;-74
2024/01/05 03:10:40;;;;;;;1.70;1.70;;;;;;;8.72;79.97;99224.31;5032797;28;20200;-74
2024/01/05 03:13:07;;;;;;;1.37;1.30;;;;;;;8.69;80.10;99224.69;5032549;28;20197;-74
2024/01/05 03:15:35;;;;;;;1.97;1.67;;;;;;;8.75;80.47;99234.53;5032154;28;20846;-74
2024/01/05 03:18:02;;;;;;;1.30;1.30;;;;;;;8.75;80.14;99239.81;5032520;28;20239;-75
2024/01/05 03:20:28;;;;;;;1.57;1.47;;;;;;;8.70;79.44;99240.38;5032268;28;20579;-74
2024/01/05 03:22:55;;;;;;;1.60;1.50;;;;;;;8.77;79.17;99243.09;5032318;28;20221;-74
2024/01/05 03:25:22;;;;;;;1.60;1.50;;;;;;;8.74;79.26;99248.78;5032345;28;20201;-74
2024/01/05 03:27:48;;;;;;;1.43;1.33;;;;;;;8.70;79.68;99244.88;5032143;28;20676;-74
2024/01/05 03:30:15;;;;;;;1.90;1.80;;;;;;;8.70;79.43;99260.75;5032449;28;20306;-74
2024/01/05 03:32:44;;;;;;;1.60;1.57;;;;;;;8.79;79.25;99257.75;5032215;28;20618;-74
2024/01/05 03:35:11;;;;;;;1.87;1.77;;;;;;;8.81;79.06;99260.22;5031787;28;20197;-75
2024/01/05 03:37:38;;;;;;;1.93;1.83;;;;;;;8.80;78.57;99267.38;5032388;28;20197;-75
2024/01/05 03:40:05;;;;;;;1.57;1.47;;;;;;;8.81;78.64;99271.66;5031738;28;20231;-74
2024/01/05 03:42:32;;;;;;;1.53;1.50;;;;;;;8.85;78.47;99277.38;5031792;28;20278;-74
2024/01/05 03:44:59;;;;;;;1.70;1.60;;;;;;;8.78;78.08;99287.91;5031694;28;20629;-74
2024/01/05 03:47:26;;;;;;;1.60;1.60;;;;;;;8.73;78.53;99287.66;5031670;28;20553;-74
2024/01/05 03:49:54;;;;;;;1.90;1.80;;;;;;;8.75;78.89;99300.72;5031712;28;20232;-73
2024/01/05 03:52:20;;;;;;;2.00;1.90;;;;;;;8.71;78.60;99310.88;5032096;28;20660;-72
2024/01/05 03:54:47;;;;;;;1.77;1.77;;;;;;;8.67;78.60;99311.44;5031956;28;20262;-73
2024/01/05 03:57:14;;;;;;;1.87;1.77;;;;;;;8.57;79.30;99301.16;5031849;28;20259;-73
2024/01/05 03:59:42;;;;;;;2.63;2.10;;;;;;;8.56;79.93;99318.03;5031597;28;20681;-73
2024/01/05 04:02:09;;;;;;;2.07;1.97;;;;;;;8.39;79.30;99318.44;5031573;28;20307;-73
2024/01/05 04:04:35;;;;;;;2.67;2.20;;;;;;;8.40;79.90;99317.44;5031862;28;20188;-74
2024/01/05 04:07:04;;;;;;;2.13;2.03;;;;;;;8.37;79.63;99321.28;5032049;28;20256;-74
2024/01/05 04:09:31;;;;;;;1.80;1.70;;;;;;;8.51;79.88;99338.13;5031024;28;20193;-72
2024/01/05 04:11:58;;;;;;;2.47;2.37;;;;;;;8.53;79.30;99336.13;5031646;28;20201;-74
2024/01/05 04:14:25;;;;;;;2.60;2.03;;;;;;;8.50;79.45;99347.09;5031445;28;20255;-73
2024/01/05 04:16:51;;;;;;;2.17;2.07;;;;;;;8.06;81.11;99348.94;5031789;28;20201;-73
2024/01/05 04:19:18;;;;;;;1.97;1.87;;;;;;;7.79;81.92;99339.00;5031698;28;20197;-72
2024/01/05 04:21:45;;;;;;;2.97;2.57;;;;;;;7.67;82.88;99345.75;5031613;28;20228;-72
2024/01/05 04:24:13;;;;;;;2.63;2.43;;;;;;;7.48;83.45;99354.19;5031106;28;20247;-75
2024/01/05 04:26:40;;;;;;;2.70;2.60;;;;;;;7.38;83.72;99353.63;5031477;28;20247;-72
2024/01/05 04:29:06;;;;;;;2.83;2.60;;;;;;;7.29;84.29;99347.59;5031335;28;20275;-74
2024/01/05 04:31:33;;;;;;;3.80;3.60;;;;;;;7.23;84.34;99350.94;5031513;28;20197;-74
2024/01/05 04:34:00;;;;;;;3.97;3.77;;;;;;;7.13;84.99;99358.31;5023109;28;20252;-73
2024/01/05 04:36:26;;;;;;;2.90;2.80;;;;;;;6.97;85.92;99355.78;5011554;28;20309;-74
2024/01/05 04:38:53;;;;;;;2.83;2.63;;;;;;;7.15;85.01;99366.06;5031405;28;20195;-74
2024/01/05 04:41:22;;;;;;;2.53;2.43;;;;;;;7.03;85.35;99360.38;5031345;28;20258;-73
2024/01/05 04:43:50;;;;;;;2.57;2.40;;;;;;;6.97;85.04;99365.50;5031054;28;20688;-73
2024/01/05 04:46:18;;;;;;;2.27;2.17;;;;;;;6.97;84.72;99365.50;5030836;28;20255;-74
2024/01/05 04:48:45;;;;;;;2.20;2.10;;;;;;;7.11;85.21;99388.53;5031064;28;20195;-73
2024/01/05 04:51:12;;;;;;;2.10;2.00;;;;;;;7.20;85.07;99390.09;5030901;28;20205;-74
2024/01/05 04:53:38;;;;;;;2.93;2.67;;;;;;;7.16;84.94;99394.09;5030018;28;20630;-74
2024/01/05 04:56:05;;;;;;;2.17;2.07;;;;;;;7.18;84.36;99400.03;5031063;28;20254;-74
2024/01/05 04:58:34;;;;;;;2.73;2.53;;;;;;;7.24;83.51;99404.59;5030877;28;20191;-74
2024/01/05 05:01:00;;;;;;;2.80;2.70;;;;;;;7.29;84.36;99408.34;5034240;28;20247;-74
2024/01/05 05:03:29;;;;;;;3.27;2.43;;;;;;;7.32;83.76;99415.09;5034575;28;20231;-74
2024/01/05 05:05:56;;;;;;;2.03;1.93;;;;;;;7.42;83.11;99407.75;5034723;28;20204;-74
2024/01/05 05:08:22;;;;;;;2.17;2.07;;;;;;;7.41;82.91;99411.41;5034820;28;20193;-74
2024/01/05 05:10:49;;;;;;;1.87;1.77;;;;;;;7.42;83.34;99413.03;5034306;28;20196;-75
2024/01/05 05:13:16;;;;;;;2.40;2.00;;;;;;;7.35;82.85;99422.69;5034739;28;20196;-73
2024/01/05 05:15:44;;;;;;;2.30;2.20;;;;;;;7.28;82.43;99411.19;5034334;28;20668;-73
2024/01/05 05:18:11;;;;;;;3.10;2.67;;;;;;;7.32;82.71;99431.78;5034191;28;20193;-74
2024/01/05 05:20:37;;;;;;;3.57;2.37;;;;;;;7.38;83.00;99430.22;5034639;28;20220;-75
2024/01/05 05:23:04;;;;;;;2.30;2.20;;;;;;;7.24;82.43;99431.84;5033986;28;20224;-76
2024/01/05 05:25:31;;;;;;;2.20;2.10;;;;;;;7.20;83.15;99430.56;5033840;28;20675;-72
2024/01/05 05:27:57;;;;;;;3.13;2.93;;;;;;;7.18;83.23;99437.81;5034574;28;20193;-66
2024/01/05 05:30:24;;;;;;;3.00;2.80;;;;;;;7.19;83.63;99441.28;5025109;28;20279;-69
2024/01/05 05:32:52;;;;;;;3.40;3.20;;;;;;;7.17;83.46;99440.63;5025595;28;20206;-68
2024/01/05 05:35:19;;;;;;;4.57;4.17;;;;;;;6.99;83.96;99437.47;5023782;28;20201;-68
2024/01/05 05:37:46;;;;;;;3.20;3.00;;;;;;;7.02;84.14;99442.41;5024255;28;20565;-68
2024/01/05 05:40:13;;;;;;;3.23;3.07;;;;;;;7.02;83.91;99439.75;5025587;28;20745;-68
2024/01/05 05:42:40;;;;;;;5.87;4.20;;;;;;;6.98;83.03;99435.81;5023578;28;20213;-68
2024/01/05 05:45:08;;;;;;;4.90;4.60;;;;;;;7.09;82.68;99443.31;5024887;28;20197;-68
2024/01/05 05:47:34;;;;;;;4.97;4.50;;;;;;;7.16;82.88;99441.63;5023199;28;20197;-69
2024/01/05 05:50:05;;;;;;;5.10;4.80;;;;;;;7.23;83.09;99458.44;5023464;28;20250;-68
2024/01/05 05:52:32;;;;;;;7.33;5.80;;;;;;;7.24;82.54;99452.16;5024758;28;20193;-69
2024/01/05 05:54:59;;;;;;;12.40;9.00;;;;;;;7.12;82.79;99461.47;5023551;28;20189;-69
2024/01/05 05:57:26;;;;;;;24.00;19.77;;;;;;;7.22;82.30;99465.53;5019856;28;20202;-71
2024/01/05 05:59:52;;;;;;;12.80;11.67;;;;;;;7.20;82.09;99472.00;5016968;28;20185;-71
2024/01/05 06:02:19;;;;;;;7.83;7.13;;;;;;;7.16;83.04;99460.13;5021086;28;20224;-71
2024/01/05 06:04:46;;;;;;;11.07;8.47;;;;;;;7.44;85.04;99466.53;5033116;28;20194;-68
2024/01/05 06:07:14;;;;;;;17.03;14.30;;;;;;;7.65;82.54;99478.09;5032559;28;20200;-71
2024/01/05 06:09:41;;;;;;;15.03;13.07;;;;;;;7.75;82.00;99483.94;5033204;28;20227;-72
2024/01/05 06:12:09;;;;;;;19.97;14.57;;;;;;;7.81;81.05;99490.34;5033011;28;20197;-71
2024/01/05 06:14:38;;;;;;;12.43;9.97;;;;;;;7.95;80.17;99500.97;5030510;28;20205;-69
2024/01/05 06:17:04;;;;;;;13.07;9.30;;;;;;;8.07;79.62;99509.28;5029735;28;20646;-72
2024/01/05 06:19:31;;;;;;;11.30;8.43;;;;;;;8.15;79.14;99506.56;5032864;28;20626;-68
2024/01/05 06:21:59;;;;;;;7.57;6.90;;;;;;;8.04;78.82;99514.94;5032844;28;20652;-71
2024/01/05 06:24:28;;;;;;;9.73;8.77;;;;;;;8.04;78.06;99513.09;5030458;28;20197;-71
2024/01/05 06:26:55;;;;;;;7.53;6.93;;;;;;;8.09;77.67;99517.88;5032564;28;20284;-71
2024/01/05 06:29:22;;;;;;;10.13;8.97;;;;;;;8.08;77.09;99518.88;5032756;28;20225;-69
2024/01/05 06:31:49;;;;;;;8.43;7.63;;;;;;;8.09;77.51;99534.56;5030904;28;20189;-69
2024/01/05 06:34:16;;;;;;;8.60;7.80;;;;;;;8.31;76.25;99532.91;5032766;28;20193;-70
2024/01/05 06:36:46;;;;;;;8.90;7.80;;;;;;;8.47;76.18;99517.69;5032856;28;20208;-72
2024/01/05 06:39:13;;;;;;;7.63;6.83;;;;;;;8.72;75.70;99542.03;5030489;28;20213;-70
2024/01/05 06:41:41;;;;;;;6.83;6.30;;;;;;;9.05;75.61;99544.13;5032678;28;20233;-70
2024/01/05 06:44:08;;;;;;;8.23;7.37;;;;;;;9.42;73.67;99553.72;5031650;28;20720;-71
2024/01/05 06:46:34;;;;;;;8.33;6.80;;;;;;;9.58;72.33;99562.28;5032436;28;20193;-73
2024/01/05 06:49:01;;;;;;;11.43;6.63;;;;;;;9.89;72.05;99560.13;5021654;28;20193;-72
2024/01/05 06:51:29;;;;;;;7.93;6.13;;;;;;;10.23;71.51;99556.81;5032291;28;20197;-74
2024/01/05 06:53:56;;;;;;;7.07;5.93;;;;;;;10.69;71.26;99568.56;5032093;28;20199;-74
2024/01/05 06:56:23;;;;;;;7.97;7.17;;;;;;;11.01;70.16;99570.59;5032094;28;20198;-72
2024/01/05 06:58:52;;;;;;;8.73;7.20;;;;;;;11.38;68.88;99574.63;5031877;28;20658;-70
2024/01/05 07:01:19;;;;;;;13.13;8.40;;;;;;;11.82;66.90;99589.16;5031582;28;20207;-69
2024/01/05 07:03:45;;;;;;;12.57;10.17;;;;;;;12.25;64.41;99598.41;5032283;28;20250;-71
2024/01/05 07:06:12;;;;;;;11.73;10.60;;;;;;;12.66;63.48;99599.03;5025899;28;20262;-70
2024/01/05 07:08:39;;;;;;;13.00;11.10;;;;;;;13.03;62.46;99593.03;5031973;28;20705;-71
2024/01/05 07:11:06;;;;;;;10.97;9.97;;;;;;;13.40;60.47;99586.97;5031735;28;20284;-70
2024/01/05 07:13:32;;;;;;;14.90;11.00;;;;;;;13.77;58.27;99583.50;5031961;28;20193;-70
2024/01/05 07:16:01;;;;;;;17.27;13.17;;;;;;;14.04;56.77;99582.31;5031707;28;20660;-70
2024/01/05 07:18:27;;;;;;;25.07;14.47;;;;;;;14.41;54.45;99576.09;5031916;28;20197;-71
2024/01/05 07:20:54;;;;;;;28.47;18.13;;;;;;;14.58;56.05;99577.16;5031090;28;20193;-71
2024/01/05 07:23:21;;;;;;;27.73;20.03;;;;;;;14.85;54.86;99577.75;5032362;28;20256;-71
2024/01/05 07:25:48;;;;;;;43.77;24.43;;;;;;;15.16;52.84;99581.09;5015497;28;20218;-73
2024/01/05 07:28:14;;;;;;;33.67;21.67;;;;;;;15.39;51.93;99594.66;5011650;28;20194;-72
2024/01/05 07:30:41;;;;;;;32.33;20.57;;;;;;;15.46;52.37;99587.38;5012972;28;20234;-72
2024/01/05 07:33:09;;;;;;;39.53;22.57;;;;;;;15.66;51.76;99587.94;5012337;28;20202;-72
2024/01/05 07:35:36;;;;;;;23.23;17.57;;;;;;;15.90;51.17;99584.28;5012365;28;20194;-72
2024/01/05 07:38:03;;;;;;;19.80;15.57;;;;;;;16.09;49.77;99589.59;5025052;28;20627;-73
2024/01/05 07:40:30;;;;;;;14.33;12.40;;;;;;;16.12;50.24;99589.16;5030444;28;20643;-73
2024/01/05 07:42:57;;;;;;;12.10;6.33;;;;;;;16.37;59.10;99573.69;5028439;28;20220;-72
2024/01/05 07:45:24;;;;;;;7.37;6.17;;;;;;;17.15;65.12;99562.38;5024522;28;20290;-72
2024/01/05 07:47:50;;;;;;;11.67;5.10;;;;;;;17.87;55.31;99583.22;5030580;28;20251;-71
2024/01/05 07:50:18;;;;;;;7.57;4.73;;;;;;;18.52;55.32;99580.88;5031708;28;20231;-71
2024/01/05 07:52:45;;;;;;;4.83;4.43;;;;;;;19.15;54.69;99575.91;5031347;28;20193;-71
2024/01/05 07:55:12;;;;;;;5.23;4.73;;;;;;;19.74;51.43;99581.25;5025276;28;20194;-59
2024/01/05 07:57:39;;;;;;;5.00;4.60;;;;;;;20.08;45.72;99571.88;5027229;28;20232;-60
2024/01/05 08:00:07;;;;;;;16.53;14.83;;;;;;;20.09;38.24;99572.72;5031741;28;20193;-64
2024/01/05 08:02:34;;;;;;;6.83;6.30;;;;;;;19.91;37.21;99578.44;5031028;28;20283;-64
2024/01/05 08:05:01;;;;;;;5.83;5.20;;;;;;;19.41;38.79;99585.97;5030319;28;20197;-63
2024/01/05 08:07:29;;;;;;;5.47;4.53;;;;;;;19.16;42.91;99572.13;5031456;28;20201;-62
2024/01/05 08:09:55;;;;;;;3.90;3.40;;;;;;;19.37;40.56;99574.88;5031323;28;20665;-62
2024/01/05 08:12:22;;;;;;;12.43;6.23;;;;;;;19.32;45.42;99576.69;5031990;28;20263;-62
2024/01/05 08:14:49;;;;;;;4.53;3.20;;;;;;;19.47;40.54;99595.72;5030408;28;20781;-62
2024/01/05 08:17:18;;;;;;;4.93;4.43;;;;;;;19.67;42.31;99586.00;5031247;28;20193;-62
2024/01/05 08:19:45;;;;;;;6.07;3.60;;;;;;;19.94;39.86;99600.31;5031159;28;20644;-62
2024/01/05 08:22:11;;;;;;;8.33;4.20;;;;;;;19.75;37.93;99603.63;5031634;28;20267;-64
2024/01/05 08:24:39;;;;;;;7.33;4.63;;;;;;;19.98;42.68;99592.56;5030309;28;20221;-63
2024/01/05 08:27:06;;;;;;;9.83;4.97;;;;;;;20.36;38.31;99600.50;5031108;28;20269;-62
2024/01/05 08:29:35;;;;;;;8.83;3.73;;;;;;;20.63;36.90;99601.28;5030455;28;20680;-62
2024/01/05 08:32:03;;;;;;;6.83;4.40;;;;;;;20.91;39.44;99602.81;5030141;28;20263;-62
2024/01/05 08:34:30;;;;;;;10.30;2.90;;;;;;;21.30;35.94;99604.97;5031866;28;20224;-62
2024/01/05 08:36:56;;;;;;;8.63;4.10;;;;;;;21.60;36.73;99602.41;5034296;28;20641;-61
2024/01/05 08:39:23;;;;;;;6.93;2.93;;;;;;;21.91;36.51;99587.94;5033877;28;20247;-63
2024/01/05 08:41:51;;;;;;;3.93;2.77;;;;;;;22.35;35.75;99594.50;5034271;28;20625;-62
2024/01/05 08:44:18;;;;;;;14.80;3.63;;;;;;;22.69;33.03;99601.03;5033912;28;21032;-63
2024/01/05 08:46:45;;;;;;;14.73;2.90;;;;;;;22.79;32.63;99601.03;5014809;28;20619;-63
2024/01/05 08:49:11;;;;;;;4.37;2.80;;;;;;;22.74;31.24;99592.91;5024141;28;20255;-63
2024/01/05 08:51:42;;;;;;;7.67;4.60;;;;;;;22.42;31.75;99596.94;5035417;28;20631;-62
2024/01/05 08:54:09;;;;;;;8.13;3.80;;;;;;;22.14;31.16;99598.28;5034699;28;20194;-61
2024/01/05 08:56:36;;;;;;;10.77;9.50;;;;;;;21.63;32.08;99598.34;5046424;28;20208;-61
2024/01/05 08:59:05;;;;;;;3.03;2.73;;;;;;;21.70;32.30;99599.78;5054397;28;20606;-61
2024/01/05 09:01:33;;;;;;;12.00;3.17;;;;;;;21.96;33.77;99596.06;5034953;28;20197;-61
2024/01/05 09:04:00;;;;;;;4.90;3.17;;;;;;;22.26;33.87;99589.91;5034440;28;20220;-61
2024/01/05 09:06:27;;;;;;;9.80;2.27;;;;;;;22.47;31.84;99588.84;5034801;28;20193;-61
2024/01/05 09:08:53;;;;;;;3.93;2.40;;;;;;;22.63;33.91;99585.91;5034752;28;20639;-62
2024/01/05 09:11:20;;;;;;;5.70;2.43;;;;;;;22.99;32.35;99579.31;5034040;28;20251;-62
2024/01/05 09:13:47;;;;;;;4.43;1.83;;;;;;;23.08;30.99;99580.38;5034459;28;20620;-61
2024/01/05 09:16:15;;;;;;;5.90;4.10;;;;;;;23.07;29.81;99580.69;5033807;28;20628;-62
2024/01/05 09:18:42;;;;;;;7.47;3.30;;;;;;;22.88;32.74;99577.72;5034523;28;20190;-63
2024/01/05 09:21:10;;;;;;;5.70;3.50;;;;;;;23.10;32.84;99575.50;5034555;28;20300;-60
2024/01/05 09:23:37;;;;;;;7.60;2.60;;;;;;;23.42;32.81;99572.44;5034070;28;20708;-62
2024/01/05 09:26:03;;;;;;;5.90;3.13;;;;;;;23.62;30.29;99575.06;5034110;28;20260;-61
2024/01/05 09:28:30;;;;;;;5.97;3.20;;;;;;;23.64;29.83;99581.84;5033463;28;20205;-61
2024/01/05 09:30:57;;;;;;;5.23;2.40;;;;;;;23.53;33.34;99569.41;5033685;28;20337;-62
2024/01/05 09:33:25;;;;;;;2.50;1.90;;;;;;;23.49;29.14;99573.75;5033855;28;20207;-62
2024/01/05 09:35:52;;;;;;;3.33;2.53;;;;;;;23.61;34.29;99566.13;5033890;28;20198;-62
2024/01/05 09:38:18;;;;;;;2.33;1.70;;;;;;;23.54;31.61;99570.22;5033647;28;20679;-62
2024/01/05 09:40:46;;;;;;;5.47;1.90;;;;;;;23.65;30.74;99561.75;5033368;28;20249;-61
2024/01/05 09:43:13;;;;;;;3.90;1.87;;;;;;;23.24;30.85;99563.00;5033992;28;20199;-61
2024/01/05 09:45:41;;;;;;;2.83;2.20;;;;;;;23.31;31.96;99558.13;5032725;28;20202;-61
2024/01/05 09:48:10;;;;;;;6.30;2.87;;;;;;;23.13;30.00;99542.44;5033756;28;20333;-61
2024/01/05 09:50:38;;;;;;;2.77;2.40;;;;;;;22.81;31.61;99550.09;5037332;28;20191;-63
2024/01/05 09:53:09;;;;;;;7.33;2.60;;;;;;;23.03;34.13;99537.03;5033546;28;20673;-63
2024/01/05 09:55:36;;;;;;;2.87;2.47;;;;;;;23.22;32.93;99540.81;5032916;28;20191;-65
2024/01/05 09:58:05;;;;;;;13.47;3.00;;;;;;;23.17;29.80;99532.69;5033637;28;20281;-67
2024/01/05 10:00:33;;;;;;;6.50;2.60;;;;;;;22.97;29.33;99526.50;5033365;28;20201;-67
2024/01/05 10:03:08;;;;;;;4.70;2.43;;;;;;;22.82;29.92;99524.63;5033859;28;20193;-64
2024/01/05 10:05:34;;;;;;;5.47;3.03;;;;;;;22.73;30.70;99509.22;5033657;28;20184;-67
2024/01/05 10:08:04;;;;;;;9.07;2.83;;;;;;;22.73;31.11;99515.44;5033868;28;20569;-66
2024/01/05 10:10:45;;;;;;;8.67;3.73;;;;;;;22.61;29.84;99505.97;5033495;28;20195;-66
2024/01/05 10:13:12;;;;;;;11.03;2.93;;;;;;;22.55;29.79;99499.78;5033455;28;20719;-66
2024/01/05 10:15:52;;;;;;;7.43;2.60;;;;;;;22.37;30.90;99503.00;5033204;28;20239;-66
2024/01/05 10:18:20;;;;;;;10.10;3.23;;;;;;;22.19;31.07;99492.75;5033497;28;20224;-65
2024/01/05 10:20:47;;;;;;;11.60;3.63;;;;;;;22.21;30.79;99484.38;5033375;28;20201;-66
2024/01/05 10:23:16;;;;;;;14.67;7.17;;;;;;;22.17;31.09;99483.28;5032784;28;20566;-66
2024/01/05 10:25:44;;;;;;;9.47;4.23;;;;;;;22.15;30.86;99478.13;5031097;28;20259;-65
2024/01/05 10:28:23;;;;;;;11.93;7.90;;;;;;;21.83;30.77;99466.75;5032535;28;20276;-65
2024/01/05 10:30:52;;;;;;;9.93;4.57;;;;;;;21.69;31.92;99465.66;5033032;28;20241;-66
2024/01/05 10:33:19;;;;;;;10.87;4.93;;;;;;;21.48;31.70;99461.25;5032174;28;20201;-66
2024/01/05 10:35:46;;;;;;;7.33;3.23;;;;;;;21.15;31.20;99461.69;5030816;28;20189;-65
2024/01/05 10:38:15;;;;;;;4.30;3.90;;;;;;;20.99;31.75;99460.00;5028555;28;20210;-65
2024/01/05 10:40:42;;;;;;;12.10;5.30;;;;;;;20.66;32.41;99459.56;5028601;28;20255;-65
2024/01/05 10:43:13;;;;;;;11.73;4.03;;;;;;;20.47;33.19;99460.00;5029441;28;20197;-65
2024/01/05 10:45:41;;;;;;;5.27;3.53;;;;;;;20.36;33.51;99468.28;5029102;28;20225;-66
2024/01/05 10:48:11;;;;;;;11.73;5.73;;;;;;;20.14;34.23;99462.19;5029003;28;20198;-65
2024/01/05 10:50:37;;;;;;;8.33;4.63;;;;;;;19.48;35.77;99457.25;5029171;28;20212;-65
2024/01/05 10:53:08;;;;;;;10.90;4.93;;;;;;;19.06;37.20;99458.91;5028672;28;20197;-72
2024/01/05 10:55:37;;;;;;;12.93;6.40;;;;;;;18.90;37.79;99446.31;5029339;28;20197;-71
2024/01/05 10:58:05;;;;;;;14.67;6.60;;;;;;;19.00;38.06;99449.16;5028947;28;20219;-71
2024/01/05 11:00:32;;;;;;;12.63;8.33;;;;;;;18.97;38.34;99444.25;5029517;28;20204;-72
2024/01/05 11:03:10;;;;;;;5.33;3.57;;;;;;;18.94;38.53;99440.19;5029571;28;20191;-72
2024/01/05 11:05:40;;;;;;;5.93;3.53;;;;;;;18.96;38.90;99437.25;5029785;28;20210;-72
2024/01/05 11:08:14;;;;;;;4.93;2.57;;;;;;;18.97;38.55;99438.88;5030261;28;20261;-71
2024/01/05 11:10:55;;;;;;;6.77;3.30;;;;;;;18.80;39.16;99438.13;5029042;28;20251;-71
2024/01/05 11:13:45;;;;;;;6.30;2.97;;;;;;;18.61;40.19;99420.66;5023574;28;20276;-71
2024/01/05 11:16:36;;;;;;;6.87;3.07;;;;;;;18.47;40.82;99435.53;5026832;28;20203;-72
2024/01/05 11:19:26;;;;;;;13.53;5.47;;;;;;;18.31;40.44;99439.03;5020029;28;20198;-69
2024/01/05 11:21:57;;;;;;;3.00;2.77;;;;;;;18.14;40.76;99440.94;5027398;28;20197;-70
2024/01/05 11:24:25;;;;;;;2.60;2.33;;;;;;;18.22;40.76;99433.25;5026498;28;20225;-70
2024/01/05 11:26:55;;;;;;;9.67;3.53;;;;;;;18.13;40.48;99409.75;5026687;28;20252;-71
2024/01/05 11:29:51;;;;;;;8.37;2.83;;;;;;;18.33;40.35;99436.94;5027737;28;20576;-70
2024/01/05 11:32:34;;;;;;;9.23;5.73;;;;;;;18.48;39.67;99429.09;5028542;28;20591;-70
2024/01/05 11:35:02;;;;;;;16.93;9.60;;;;;;;18.60;39.42;99429.78;5028190;28;20200;-71
2024/01/05 11:37:30;;;;;;;14.63;9.37;;;;;;;18.59;39.26;99428.16;5028638;28;20203;-70
2024/01/05 11:39:58;;;;;;;7.87;3.03;;;;;;;18.72;39.40;99431.31;5028620;28;20212;-71